WetterOnline ( http://www.wetteronline.de )

Wetter aktuell Gießen

Aktuelles Wetter: Gießen (195m)

6-stündlich | Neueste Meldungen
Ortszeit Temperatur Wetter
So, 16.12. 13:00 -2.0° C leichter Schneefall
So, 16.12. 7:00 -2.2° C leichter Schneefall
So, 16.12. 1:00 -3.0° C wolkig
Sa, 15.12. 19:00 -0.8° C bedeckt
Sa, 15.12. 13:00 -0.3° C bedeckt
Sa, 15.12. 7:00 -0.7° C bedeckt
Sa, 15.12. 1:00 -0.4° C bedeckt
Fr, 14.12. 19:00 -0.4° C bedeckt
Ortszeit Temperatur Wetter
So, 16.12. 13:30 -1.7° C leichter Schneefall
So, 16.12. 13:10 -1.8° C Schneegriesel
So, 16.12. 13:00 -2.0° C leichter Schneefall
So, 16.12. 12:50 -2.0° C leichter Schneefall
So, 16.12. 12:40 -2.0° C Schneegriesel
So, 16.12. 12:30 -2.1° C bedeckt
So, 16.12. 12:00 -2.2° C Schneegriesel
So, 16.12. 11:30 -2.3° C leichter Schneefall
So, 16.12. 11:00 -2.5° C leichter Schneefall
So, 16.12. 10:30 -2.5° C Schneegriesel
Ortszeit Relative Feuchte Sichtweite
So, 16.12. 13:00 92% 2.0 km
So, 16.12. 7:00 79% 4.3 km
So, 16.12. 1:00 74% 25 km
Sa, 15.12. 19:00 64% 30 km
Sa, 15.12. 13:00 66% 30 km
Sa, 15.12. 7:00 71% 27 km
Sa, 15.12. 1:00 66% 30 km
Fr, 14.12. 19:00 68% 40 km
Ortszeit Relative Feuchte Sichtweite
So, 16.12. 13:30 92% 6 km
So, 16.12. 13:10 92% -
So, 16.12. 13:00 92% 2.0 km
So, 16.12. 12:50 92% -
So, 16.12. 12:40 90% -
So, 16.12. 12:30 90% 7 km
So, 16.12. 12:00 89% 6 km
So, 16.12. 11:30 91% 3.6 km
So, 16.12. 11:00 91% 4.8 km
So, 16.12. 10:30 91% 4.4 km
Ortszeit Niederschlagsmenge Niederschlagsart
So, 16.12. 13:00 0.6 l/m2 in 6 Std. Schnee
So, 16.12. 7:00 0.1 l/m2 in 12 Std. Schnee
So, 16.12. 1:00 0.0 l/m2 in 6 Std. -
Sa, 15.12. 19:00 0.0 l/m2 in 12 Std. -
Sa, 15.12. 13:00 0.0 l/m2 in 6 Std. -
Sa, 15.12. 7:00 0.0 l/m2 in 12 Std. -
Sa, 15.12. 1:00 0.0 l/m2 in 6 Std. -
Fr, 14.12. 19:00 0.0 l/m2 in 12 Std. -
Ortszeit Niederschlagsmenge Niederschlagsart
So, 16.12. 13:30 0.1 l/m2 in 1 Std. -
So, 16.12. 13:10 keine Meldung -
So, 16.12. 13:00 0.1 l/m2 in 1 Std. Schnee
So, 16.12. 12:50 keine Meldung -
So, 16.12. 12:40 keine Meldung -
So, 16.12. 12:30 0.1 l/m2 in 1 Std. Schnee
So, 16.12. 12:00 0.1 l/m2 in 1 Std. Schnee
So, 16.12. 11:30 0.1 l/m2 in 1 Std. -
So, 16.12. 11:00 0.1 l/m2 in 1 Std. Schnee
So, 16.12. 10:30 0.1 l/m2 in 1 Std. -
Ortszeit Stärke Spitze Richtung
km/h Bft. km/h Grad Sektor
So, 16.12. 13:00 11 2 22 160° S
So, 16.12. 7:00 14 3 25 140° SO
So, 16.12. 1:00 9 2 26 80° O
Sa, 15.12. 19:00 11 2 25 120° SO
Sa, 15.12. 13:00 9 2 20 120° SO
Sa, 15.12. 7:00 7 2 17 100° O
Sa, 15.12. 1:00 7 2 18 110° O
Fr, 14.12. 19:00 11 2 26 60° NO
Ortszeit Stärke Spitze Richtung
km/h Bft. km/h Grad Sektor
So, 16.12. 13:30 11 2 18 160° S
So, 16.12. 13:10 11 2 - 160° S
So, 16.12. 13:00 11 2 18 160° S
So, 16.12. 12:50 11 2 - 160° S
So, 16.12. 12:40 11 2 - 160° S
So, 16.12. 12:30 13 3 19 160° S
So, 16.12. 12:00 11 2 18 160° S
So, 16.12. 11:30 11 2 18 140° SO
So, 16.12. 11:00 7 2 11 140° SO
So, 16.12. 10:30 7 2 11 150° SO
Ortszeit Untergrenze Bedeckung Gattung
total tief tief mittel hoch
So, 16.12. 13:00 240 m 8/8 8/8 - - -
So, 16.12. 7:00 570 m 8/8 8/8 - - -
So, 16.12. 1:00 840 m 8/8 1/8 - - -
Sa, 15.12. 19:00 870 m 8/8 8/8 - - -
Sa, 15.12. 13:00 810 m 8/8 8/8 - - -
Sa, 15.12. 7:00 750 m 8/8 8/8 - - -
Sa, 15.12. 1:00 870 m 8/8 8/8 - - -
Fr, 14.12. 19:00 930 m 8/8 8/8 - - -
Ortszeit Bedeckungsgrad in Achtel und Wolkenuntergrenze
So, 16.12. 13:30 8(210m) 8(1020m)
So, 16.12. 13:10 7(240m) 7(1050m)
So, 16.12. 13:00 7(240m) 8(360m)
So, 16.12. 12:50 7(240m) 8(360m)
So, 16.12. 12:40 8(210m)
So, 16.12. 12:30 8(210m)
So, 16.12. 12:00 7(240m) 7(480m) 7(1140m)
So, 16.12. 11:30 4(240m) 7(570m) 8(690m)
So, 16.12. 11:00 8(330m) 8(720m) 8(720m)
So, 16.12. 10:30 5(270m) 8(420m)
Ortszeit Luftdruck NN (hPa) Tendenz (hPa in 3 Std.)
So, 16.12. 13:00 1014 - 0,9
So, 16.12. 7:00 1014 - 2,6
So, 16.12. 1:00 1019 - 3,3
Sa, 15.12. 19:00 1024 - 1,6
Sa, 15.12. 13:00 1027 - 0,9
Sa, 15.12. 7:00 1027 - 0,1
Sa, 15.12. 1:00 1026 - 0,2
Fr, 14.12. 19:00 1025 + 1,2
Ortszeit Luftdruck NN (hPa) Tendenz (hPa in 3 Std.)
So, 16.12. 13:30 1014 - 0,8
So, 16.12. 13:10 1014 keine Meldung
So, 16.12. 13:00 1014 - 0,9
So, 16.12. 12:50 1014 keine Meldung
So, 16.12. 12:40 1014 keine Meldung
So, 16.12. 12:30 1014 - 0,7
So, 16.12. 12:00 1014 - 0,1
So, 16.12. 11:30 1014 + 0,2
So, 16.12. 11:00 1015 + 0,4
So, 16.12. 10:30 1015 + 0,7
Ortszeit Schneehöhe (cm)
So, 16.12. 13:00 1
So, 16.12. 7:00 0
So, 16.12. 1:00 0
Sa, 15.12. 19:00 0
Sa, 15.12. 13:00 0
Sa, 15.12. 7:00 0
Sa, 15.12. 1:00 0
Fr, 14.12. 19:00 0
Ortszeit Schneehöhe (cm)
So, 16.12. 13:30 1
So, 16.12. 13:10 1
So, 16.12. 13:00 1
So, 16.12. 12:50 1
So, 16.12. 12:40 1
So, 16.12. 12:30 1
So, 16.12. 12:00 1
So, 16.12. 11:30 1
So, 16.12. 11:00 1
So, 16.12. 10:30 1
Link zu dieser Seite / Seite empfehlen

Das Wetter in ...